Time;durP1;ratioP1;P1;durP2;ratioP2;P2;SDS_P1;SDS_P2;PMS_P1;PMS_P2;Temp;Humidity;BMP_temperature;BMP_pressure;BME280_temperature;BME280_humidity;BME280_pressure;Samples;Min_cycle;Max_cycle;Signal;HPM_P1;HPM_P2
2023/03/12 00:02:04;;;;;;;12.95;7.05;;;;;;;-0.91;71.62;97885.72;4972167;28;20039;-69
2023/03/12 00:04:30;;;;;;;13.00;6.93;;;;;;;-0.93;71.48;97898.59;4990827;28;20037;-70
2023/03/12 00:06:56;;;;;;;12.80;7.20;;;;;;;-0.95;71.50;97906.88;4990462;28;20050;-69
2023/03/12 00:09:22;;;;;;;11.43;7.63;;;;;;;-0.99;71.55;97910.28;4981664;28;20070;-68
2023/03/12 00:11:47;;;;;;;13.07;8.05;;;;;;;-1.02;71.49;97914.28;4971070;28;20030;-69
2023/03/12 00:14:13;;;;;;;15.35;9.60;;;;;;;-1.05;71.56;97912.88;4988834;28;20125;-67
2023/03/12 00:16:38;;;;;;;12.82;8.38;;;;;;;-1.08;71.50;97917.91;4989913;28;20037;-68
2023/03/12 00:19:04;;;;;;;15.63;8.52;;;;;;;-1.12;71.47;97920.22;4990200;28;20031;-68
2023/03/12 00:21:29;;;;;;;13.40;7.97;;;;;;;-1.14;71.57;97921.53;4971404;28;20483;-67
2023/03/12 00:23:55;;;;;;;14.13;8.93;;;;;;;-1.18;71.39;97923.84;4971334;28;20039;-68
2023/03/12 00:26:21;;;;;;;13.57;7.95;;;;;;;-1.23;71.42;97923.75;4970549;28;20542;-69
2023/03/12 00:28:48;;;;;;;17.45;10.02;;;;;;;-1.25;71.46;97925.84;4969879;28;20058;-68
2023/03/12 00:31:22;;;;;;;13.00;7.50;;;;;;;-1.29;71.39;97922.00;4970929;28;20039;-68
2023/03/12 00:33:49;;;;;;;11.40;6.10;;;;;;;-1.30;71.28;97925.72;4971091;28;20035;-69
2023/03/12 00:36:15;;;;;;;10.45;5.88;;;;;;;-1.33;71.61;97929.69;4970210;28;20039;-68
2023/03/12 00:38:41;;;;;;;11.27;6.40;;;;;;;-1.37;71.47;97932.03;4970848;28;20027;-68
2023/03/12 00:41:07;;;;;;;13.25;7.05;;;;;;;-1.41;71.49;97933.56;4971110;28;20026;-68
2023/03/12 00:43:32;;;;;;;12.63;7.50;;;;;;;-1.43;71.51;97932.97;4986881;28;20026;-68
2023/03/12 00:45:58;;;;;;;15.05;8.10;;;;;;;-1.43;71.55;97932.16;4967281;28;20062;-68
2023/03/12 00:48:24;;;;;;;15.43;8.00;;;;;;;-1.42;71.56;97931.06;4971191;28;20115;-68
2023/03/12 00:50:49;;;;;;;14.02;7.55;;;;;;;-1.43;71.84;97946.41;4970713;28;20042;-68
2023/03/12 00:53:16;;;;;;;17.95;9.25;;;;;;;-1.45;71.37;97945.81;4970911;28;20039;-69
2023/03/12 00:55:42;;;;;;;17.23;8.48;;;;;;;-1.51;71.92;97942.19;4974129;28;20466;-69
2023/03/12 00:58:07;;;;;;;16.95;8.60;;;;;;;-1.54;71.54;97941.81;4977119;28;20093;-68
2023/03/12 01:00:32;;;;;;;23.38;10.82;;;;;;;-1.58;71.25;97944.16;4977308;28;20042;-68
2023/03/12 01:02:58;;;;;;;21.08;8.98;;;;;;;-1.60;71.58;97940.88;4988782;28;20042;-68
2023/03/12 01:05:24;;;;;;;15.55;8.43;;;;;;;-1.60;71.50;97945.41;4977267;28;20171;-69
2023/03/12 01:07:49;;;;;;;15.23;8.20;;;;;;;-1.65;71.50;97938.88;4977183;28;20027;-68
2023/03/12 01:10:16;;;;;;;15.93;8.70;;;;;;;-1.66;71.48;97936.41;4977233;28;20106;-68
2023/03/12 01:12:42;;;;;;;16.85;8.30;;;;;;;-1.66;71.41;97945.31;4977227;28;20065;-68
2023/03/12 01:15:14;;;;;;;19.73;9.18;;;;;;;-1.68;71.29;97936.66;4976854;28;20034;-69
2023/03/12 01:17:40;;;;;;;22.80;10.00;;;;;;;-1.71;71.75;97928.22;4976770;28;20031;-68
2023/03/12 01:20:07;;;;;;;51.60;16.13;;;;;;;-1.72;71.58;97929.25;4977414;28;20038;-69
2023/03/12 01:22:33;;;;;;;73.13;21.88;;;;;;;-1.73;71.44;97917.69;4977672;28;20038;-68
2023/03/12 01:25:08;;;;;;;67.47;20.15;;;;;;;-1.73;71.44;97923.06;4976713;28;20047;-68
2023/03/12 01:27:34;;;;;;;52.00;16.23;;;;;;;-1.72;71.45;97932.78;4976979;28;20078;-67
2023/03/12 01:29:59;;;;;;;49.20;16.58;;;;;;;-1.73;71.44;97920.38;4977627;28;20043;-68
2023/03/12 01:32:24;;;;;;;55.42;19.88;;;;;;;-1.72;71.68;97923.88;4983699;28;20038;-68
2023/03/12 01:34:50;;;;;;;26.45;10.90;;;;;;;-1.73;71.38;97925.75;4996575;28;20034;-68
2023/03/12 01:37:15;;;;;;;21.15;9.27;;;;;;;-1.75;71.41;97916.28;4996308;28;20410;-67
2023/03/12 01:39:41;;;;;;;18.63;9.73;;;;;;;-1.78;71.63;97917.56;4996895;28;20041;-68
2023/03/12 01:42:06;;;;;;;17.80;8.52;;;;;;;-1.80;71.14;97928.53;4996774;28;20030;-68
2023/03/12 01:44:58;;;;;;;19.05;9.63;;;;;;;-1.82;71.24;97929.81;4996802;28;20328;-68
2023/03/12 01:47:25;;;;;;;18.05;9.07;;;;;;;-1.82;71.43;97933.31;4996217;28;20026;-68
2023/03/12 01:49:52;;;;;;;16.40;8.63;;;;;;;-1.86;71.61;97937.53;4988896;28;20030;-68
2023/03/12 01:52:26;;;;;;;15.40;8.77;;;;;;;-1.89;71.35;97937.16;4977120;28;20051;-68
2023/03/12 01:54:58;;;;;;;15.60;7.95;;;;;;;-1.92;71.29;97935.75;4977257;28;20062;-67
2023/03/12 01:57:33;;;;;;;14.65;8.52;;;;;;;-1.93;71.37;97938.66;4976586;28;20121;-67
2023/03/12 02:00:06;;;;;;;14.18;8.20;;;;;;;-1.98;71.14;97936.66;4977154;28;20035;-68
2023/03/12 02:02:34;;;;;;;17.55;8.23;;;;;;;-1.99;71.20;97945.78;4977253;28;20169;-68
2023/03/12 02:05:10;;;;;;;14.95;7.97;;;;;;;-2.03;71.40;97948.06;4975687;28;20034;-68
2023/03/12 02:07:36;;;;;;;13.77;8.00;;;;;;;-2.03;71.43;97950.75;4977578;28;20084;-68
2023/03/12 02:10:03;;;;;;;15.98;8.93;;;;;;;-2.05;71.48;97952.06;4985659;28;20038;-68
2023/03/12 02:12:28;;;;;;;19.42;9.75;;;;;;;-2.07;71.31;97959.50;4973426;28;20042;-68
2023/03/12 02:14:53;;;;;;;21.48;9.85;;;;;;;-2.10;71.53;97961.59;4973407;28;20038;-68
2023/03/12 02:17:19;;;;;;;24.08;10.07;;;;;;;-2.12;71.61;97965.59;4973005;28;20376;-68
2023/03/12 02:20:06;;;;;;;20.25;10.45;;;;;;;-2.15;71.48;97956.09;4973559;28;20033;-68
2023/03/12 02:22:34;;;;;;;18.15;9.10;;;;;;;-2.15;71.13;97960.66;4973367;28;20027;-68
2023/03/12 02:25:14;;;;;;;20.55;9.68;;;;;;;-2.16;71.24;97967.88;4973187;28;20640;-68
2023/03/12 02:27:40;;;;;;;;;;;;;;;-2.16;71.43;97977.81;4973298;28;20487;-68
2023/03/12 02:30:07;;;;;;;25.90;11.93;;;;;;;-2.18;71.38;97978.03;4973418;28;20417;-68
2023/03/12 02:32:38;;;;;;;30.42;12.75;;;;;;;-2.21;71.56;97975.00;4973047;28;20035;-68
2023/03/12 02:35:05;;;;;;;35.42;15.38;;;;;;;-2.21;71.25;97983.84;4986740;28;20475;-68
2023/03/12 02:37:31;;;;;;;22.15;10.82;;;;;;;-2.23;71.23;97983.25;4972400;28;20030;-68
2023/03/12 02:40:14;;;;;;;18.42;8.95;;;;;;;-2.25;71.42;97978.13;4973219;28;20034;-68
2023/03/12 02:42:40;;;;;;;15.68;8.50;;;;;;;-2.27;71.43;97980.22;4979097;28;20741;-68
2023/03/12 02:45:05;;;;;;;16.10;8.45;;;;;;;-2.27;71.37;97990.16;4992389;28;20041;-68
2023/03/12 02:47:31;;;;;;;13.40;7.63;;;;;;;-2.28;71.27;97986.63;4991338;28;20031;-68
2023/03/12 02:49:56;;;;;;;14.55;8.02;;;;;;;-2.29;71.59;97992.25;4992034;28;20046;-68
2023/03/12 02:52:22;;;;;;;14.00;7.82;;;;;;;-2.30;71.22;97990.59;4992229;28;20506;-68
2023/03/12 02:54:47;;;;;;;15.82;8.57;;;;;;;-2.28;71.40;97992.00;4992072;28;20026;-68
2023/03/12 02:57:13;;;;;;;15.15;8.35;;;;;;;-2.28;71.55;97994.69;4986614;28;20027;-68
2023/03/12 02:59:38;;;;;;;17.63;8.50;;;;;;;-2.27;71.21;97995.53;4985915;28;20471;-68
2023/03/12 03:02:03;;;;;;;16.55;9.10;;;;;;;-2.28;71.63;98001.94;4972796;28;20081;-68
2023/03/12 03:04:30;;;;;;;15.75;8.93;;;;;;;-2.28;71.61;98005.44;4972663;28;20109;-68
2023/03/12 03:06:55;;;;;;;17.88;9.35;;;;;;;-2.29;71.40;98003.78;4970587;28;20539;-67
2023/03/12 03:09:21;;;;;;;18.98;9.73;;;;;;;-2.29;71.03;98011.84;4972995;28;20057;-68
2023/03/12 03:11:48;;;;;;;17.35;8.32;;;;;;;-2.30;71.04;98017.47;4989769;28;20030;-69
2023/03/12 03:14:14;;;;;;;17.63;8.35;;;;;;;-2.32;71.29;98019.53;4979395;28;20150;-68
2023/03/12 03:16:39;;;;;;;16.70;8.63;;;;;;;-2.33;71.14;98026.75;4970985;28;20110;-68
2023/03/12 03:19:05;;;;;;;17.58;9.27;;;;;;;-2.35;71.27;98028.03;4987285;28;20124;-68
2023/03/12 03:21:32;;;;;;;17.70;9.27;;;;;;;-2.37;71.05;98033.63;4972839;28;20447;-68
2023/03/12 03:23:57;;;;;;;18.50;9.20;;;;;;;-2.37;71.09;98030.13;4972399;28;20026;-68
2023/03/12 03:26:23;;;;;;;16.95;8.93;;;;;;;-2.38;71.10;98025.81;4971836;28;20657;-68
2023/03/12 03:28:49;;;;;;;20.08;9.60;;;;;;;-2.37;70.95;98033.63;4972092;28;20094;-68
2023/03/12 03:31:16;;;;;;;17.58;8.98;;;;;;;-2.40;70.84;98034.06;4972415;28;20031;-67
2023/03/12 03:33:41;;;;;;;15.60;8.13;;;;;;;-2.40;71.07;98040.28;4972391;28;20034;-68
2023/03/12 03:36:08;;;;;;;16.50;9.10;;;;;;;-2.41;70.91;98046.69;4971694;28;20042;-68
2023/03/12 03:38:34;;;;;;;18.90;8.95;;;;;;;-2.43;70.90;98046.09;4972086;28;20038;-68
2023/03/12 03:41:00;;;;;;;19.92;9.65;;;;;;;-2.43;71.24;98051.47;4972277;28;20110;-68
2023/03/12 03:43:26;;;;;;;16.70;9.02;;;;;;;-2.44;71.49;98047.13;4972449;28;20122;-68
2023/03/12 03:46:00;;;;;;;18.13;9.32;;;;;;;-2.45;70.82;98047.38;4971624;28;20026;-68
2023/03/12 03:48:26;;;;;;;18.27;9.43;;;;;;;-2.45;71.04;98050.06;4972037;28;20033;-68
2023/03/12 03:50:52;;;;;;;16.80;8.77;;;;;;;-2.47;70.74;98050.25;4971961;28;20035;-68
2023/03/12 03:53:18;;;;;;;16.40;8.35;;;;;;;-2.47;70.83;98047.56;4971781;28;20035;-68
2023/03/12 03:55:43;;;;;;;20.48;9.38;;;;;;;-2.48;71.11;98047.81;4971803;28;20033;-68
2023/03/12 03:58:09;;;;;;;14.65;7.40;;;;;;;-2.50;70.80;98053.38;4971529;28;20027;-70
2023/03/12 04:00:34;;;;;;;16.92;8.18;;;;;;;-2.50;70.97;98057.94;4971928;28;20023;-69
2023/03/12 04:03:00;;;;;;;14.73;8.20;;;;;;;-2.49;70.86;98054.22;4971604;28;20050;-68
2023/03/12 04:05:25;;;;;;;71.95;23.90;;;;;;;-2.51;70.89;98059.00;4971493;28;20486;-68
2023/03/12 04:07:52;;;;;;;73.30;26.38;;;;;;;-2.51;70.89;98062.47;4971106;28;20047;-68
2023/03/12 04:10:20;;;;;;;31.38;13.52;;;;;;;-2.51;70.93;98056.31;4971594;28;20026;-68
2023/03/12 04:12:45;;;;;;;22.15;10.55;;;;;;;-2.51;70.61;98057.09;4971692;28;20038;-67
2023/03/12 04:15:11;;;;;;;18.55;9.95;;;;;;;-2.52;70.76;98054.66;4971298;28;20057;-68
2023/03/12 04:17:36;;;;;;;20.35;11.52;;;;;;;-2.52;70.97;98060.03;4971255;28;20376;-68
2023/03/12 04:20:06;;;;;;;20.65;11.90;;;;;;;-2.54;70.58;98049.50;4979338;28;20041;-68
2023/03/12 04:22:31;;;;;;;17.63;9.65;;;;;;;-2.55;70.69;98061.28;4970815;28;20077;-68
2023/03/12 04:24:56;;;;;;;17.40;9.30;;;;;;;-2.55;70.65;98058.59;4970680;28;20070;-68
2023/03/12 04:27:22;;;;;;;16.77;9.25;;;;;;;-2.55;70.42;98069.34;4970317;28;20030;-68
2023/03/12 04:29:47;;;;;;;16.42;8.95;;;;;;;-2.56;70.51;98070.38;4970544;28;20464;-69
2023/03/12 04:32:13;;;;;;;18.38;9.13;;;;;;;-2.57;70.60;98074.09;4970828;28;20039;-68
2023/03/12 04:34:38;;;;;;;15.05;8.98;;;;;;;-2.58;70.43;98075.97;4970990;28;20031;-68
2023/03/12 04:37:03;;;;;;;28.35;13.88;;;;;;;-2.59;70.62;98070.81;4970194;28;20038;-68
2023/03/12 04:39:29;;;;;;;21.02;10.68;;;;;;;-2.60;70.41;98078.06;4971297;28;20093;-68
2023/03/12 04:41:54;;;;;;;17.63;9.65;;;;;;;-2.61;70.43;98072.91;4971019;28;20041;-67
2023/03/12 04:44:20;;;;;;;16.08;9.20;;;;;;;-2.61;70.18;98079.09;4986623;28;20046;-68
2023/03/12 04:46:45;;;;;;;17.52;8.93;;;;;;;-2.62;70.22;98074.78;4989622;28;20109;-68
2023/03/12 04:49:11;;;;;;;18.58;8.77;;;;;;;-2.64;70.25;98071.47;4990071;28;20474;-68
2023/03/12 04:51:36;;;;;;;15.88;9.55;;;;;;;-2.62;70.19;98073.94;4990407;28;20070;-68
2023/03/12 04:54:02;;;;;;;14.75;8.18;;;;;;;-2.62;70.12;98084.69;4989867;28;20072;-68
2023/03/12 04:56:27;;;;;;;15.82;9.07;;;;;;;-2.63;70.38;98085.72;4989804;28;20030;-68
2023/03/12 04:58:53;;;;;;;16.20;8.45;;;;;;;-2.63;70.52;98085.72;4990044;28;20054;-68
2023/03/12 05:01:25;;;;;;;17.48;8.40;;;;;;;-2.64;70.32;98086.75;4972926;28;20035;-67
2023/03/12 05:03:51;;;;;;;14.10;7.13;;;;;;;-2.64;70.32;98084.91;4970990;28;20081;-68
2023/03/12 05:06:17;;;;;;;14.23;7.78;;;;;;;-2.64;70.07;98078.69;4970291;28;20098;-68
2023/03/12 05:08:43;;;;;;;16.90;8.60;;;;;;;-2.63;70.26;98093.78;4978157;28;20030;-68
2023/03/12 05:11:08;;;;;;;14.90;7.60;;;;;;;-2.63;70.05;98096.47;4974739;28;20119;-68
2023/03/12 05:13:33;;;;;;;17.67;8.20;;;;;;;-2.63;69.62;98099.13;4970731;28;20157;-68
2023/03/12 05:15:59;;;;;;;13.73;7.60;;;;;;;-2.65;70.06;98096.69;4970575;28;20041;-68
2023/03/12 05:18:25;;;;;;;18.63;8.10;;;;;;;-2.63;69.97;98102.66;4970812;28;20030;-68
2023/03/12 05:21:10;;;;;;;14.68;7.22;;;;;;;-2.63;69.52;98104.50;4970869;28;20031;-68
2023/03/12 05:23:38;;;;;;;15.85;7.00;;;;;;;-2.61;70.12;98105.94;4968143;28;20039;-68
2023/03/12 05:26:04;;;;;;;17.02;7.82;;;;;;;-2.60;69.87;98110.28;4968797;28;20054;-68
2023/03/12 05:28:29;;;;;;;13.50;7.30;;;;;;;-2.60;69.60;98104.91;4970236;28;20039;-69
2023/03/12 05:30:57;;;;;;;17.55;8.18;;;;;;;-2.57;70.07;98109.84;4970103;28;20402;-68
2023/03/12 05:33:23;;;;;;;15.48;8.02;;;;;;;-2.54;69.98;98108.56;4970164;28;20122;-69
2023/03/12 05:35:49;;;;;;;13.85;7.75;;;;;;;-2.50;69.78;98119.72;4969684;28;20495;-68
2023/03/12 05:38:15;;;;;;;13.60;7.90;;;;;;;-2.46;69.58;98121.72;4970887;28;20122;-68
2023/03/12 05:40:40;;;;;;;16.63;8.50;;;;;;;-2.43;69.45;98126.66;4971664;28;20026;-69
2023/03/12 05:43:05;;;;;;;14.05;8.05;;;;;;;-2.38;69.77;98133.22;4973912;28;20049;-68
2023/03/12 05:45:32;;;;;;;15.38;7.63;;;;;;;-2.32;69.33;98129.69;4974650;28;20391;-68
2023/03/12 05:47:57;;;;;;;17.67;8.93;;;;;;;-2.28;69.45;98131.69;4975150;28;20027;-68
2023/03/12 05:50:23;;;;;;;29.95;12.05;;;;;;;-2.21;69.89;98134.31;4974641;28;20069;-68
2023/03/12 05:52:48;;;;;;;28.50;12.93;;;;;;;-2.12;69.89;98135.66;4974329;28;20597;-69
2023/03/12 05:55:14;;;;;;;19.02;9.05;;;;;;;-2.01;69.76;98141.34;4974695;28;20079;-68
2023/03/12 05:57:39;;;;;;;15.80;8.65;;;;;;;-1.95;69.42;98140.47;4974897;28;20029;-68
2023/03/12 06:00:06;;;;;;;15.68;8.65;;;;;;;-1.89;69.32;98150.34;4972992;28;20122;-68
2023/03/12 06:02:31;;;;;;;16.77;9.35;;;;;;;-1.84;69.51;98137.06;4973535;28;20136;-68
2023/03/12 06:04:57;;;;;;;13.52;8.13;;;;;;;-1.77;69.12;98145.03;4972069;28;20456;-67
2023/03/12 06:07:23;;;;;;;17.13;9.25;;;;;;;-1.72;69.36;98147.03;4973015;28;20034;-67
2023/03/12 06:09:48;;;;;;;16.98;10.05;;;;;;;-1.75;69.13;98145.63;4973407;28;20022;-67
2023/03/12 06:12:14;;;;;;;15.88;9.00;;;;;;;-1.80;68.97;98143.59;4973713;28;20027;-68
2023/03/12 06:14:39;;;;;;;27.30;14.00;;;;;;;-1.85;68.77;98154.22;4972288;28;20066;-68
2023/03/12 06:17:05;;;;;;;28.13;15.80;;;;;;;-1.89;68.80;98152.19;4975613;28;20018;-68
2023/03/12 06:19:30;;;;;;;29.25;19.45;;;;;;;-1.92;68.83;98160.69;4975052;28;20480;-68
2023/03/12 06:21:56;;;;;;;30.17;20.92;;;;;;;-1.91;68.92;98167.72;4971063;28;20125;-68
2023/03/12 06:24:21;;;;;;;20.88;13.00;;;;;;;-1.87;69.08;98179.66;4971099;28;20038;-69
2023/03/12 06:26:46;;;;;;;22.80;12.35;;;;;;;-1.80;68.54;98175.88;4971822;28;20037;-69
2023/03/12 06:29:12;;;;;;;22.25;12.63;;;;;;;-1.72;69.30;98184.69;4972695;28;20034;-69
2023/03/12 06:31:38;;;;;;;31.27;18.42;;;;;;;-1.67;68.92;98184.84;4972358;28;20482;-69
2023/03/12 06:34:04;;;;;;;29.73;16.85;;;;;;;-1.61;69.08;98183.13;4972349;28;20023;-68
2023/03/12 06:36:29;;;;;;;23.98;13.95;;;;;;;-1.56;69.11;98184.09;4971594;28;20053;-69
2023/03/12 06:38:55;;;;;;;30.48;17.67;;;;;;;-1.50;69.02;98185.91;4971894;28;20475;-68
2023/03/12 06:41:20;;;;;;;31.17;15.25;;;;;;;-1.44;68.87;98199.50;4970717;28;20521;-69
2023/03/12 06:43:46;;;;;;;37.67;19.20;;;;;;;-1.39;68.88;98203.16;4972139;28;20022;-69
2023/03/12 06:46:15;;;;;;;27.02;13.32;;;;;;;-1.32;68.86;98197.69;4971403;28;20479;-69
2023/03/12 06:48:41;;;;;;;34.80;16.00;;;;;;;-1.29;69.37;98205.31;4971440;28;20027;-68
2023/03/12 06:51:09;;;;;;;29.98;13.25;;;;;;;-1.28;69.04;98206.16;4971149;28;20034;-68
2023/03/12 06:53:34;;;;;;;33.22;14.52;;;;;;;-1.28;68.80;98206.94;4973108;28;20042;-68
2023/03/12 06:56:00;;;;;;;30.85;14.07;;;;;;;-1.30;69.08;98200.16;4971750;28;20035;-68
2023/03/12 06:58:25;;;;;;;31.95;14.30;;;;;;;-1.32;68.91;98203.06;4972272;28;20031;-68
2023/03/12 07:00:52;;;;;;;21.75;11.52;;;;;;;-1.33;68.87;98206.81;4971976;28;20475;-68
2023/03/12 07:03:17;;;;;;;23.98;13.23;;;;;;;-1.35;68.90;98200.81;4972119;28;20069;-67
2023/03/12 07:05:44;;;;;;;22.45;12.48;;;;;;;-1.36;68.77;98213.47;4971896;28;20506;-67
2023/03/12 07:08:10;;;;;;;21.63;11.35;;;;;;;-1.36;69.05;98209.94;4971427;28;20058;-68
2023/03/12 07:10:36;;;;;;;19.17;10.60;;;;;;;-1.36;68.99;98204.56;4971641;28;20182;-68
2023/03/12 07:13:01;;;;;;;21.13;11.23;;;;;;;-1.36;68.89;98216.16;4986671;28;20139;-68
2023/03/12 07:15:27;;;;;;;19.77;10.30;;;;;;;-1.35;68.94;98209.72;4971119;28;20038;-68
2023/03/12 07:17:52;;;;;;;19.98;10.68;;;;;;;-1.31;69.03;98212.78;4971421;28;20027;-67
2023/03/12 07:20:18;;;;;;;24.00;12.85;;;;;;;-1.24;69.13;98202.78;4971672;28;20057;-67
2023/03/12 07:22:43;;;;;;;20.23;12.15;;;;;;;-1.17;68.85;98204.56;4971295;28;20023;-68
2023/03/12 07:25:10;;;;;;;20.00;12.30;;;;;;;-1.12;69.21;98194.75;4970732;28;20058;-68
2023/03/12 07:27:35;;;;;;;18.98;11.55;;;;;;;-1.06;69.54;98204.63;4970694;28;20259;-68
2023/03/12 07:30:01;;;;;;;19.30;10.68;;;;;;;-0.99;69.05;98198.31;4970868;28;20518;-67
2023/03/12 07:32:26;;;;;;;21.10;11.30;;;;;;;-0.92;69.46;98199.88;4970765;28;20493;-69
2023/03/12 07:34:52;;;;;;;22.15;11.48;;;;;;;-0.82;69.16;98209.28;4971076;28;20085;-69
2023/03/12 07:37:17;;;;;;;19.52;10.02;;;;;;;-0.75;69.19;98210.81;4970733;28;20049;-69
2023/03/12 07:39:43;;;;;;;45.17;18.83;;;;;;;-0.68;69.47;98208.06;4973813;28;20113;-69
2023/03/12 07:42:08;;;;;;;30.98;13.43;;;;;;;-0.60;69.20;98210.41;4970402;28;20039;-69
2023/03/12 07:44:35;;;;;;;30.80;13.32;;;;;;;-0.55;69.14;98198.13;4971092;28;20066;-68
2023/03/12 07:47:01;;;;;;;28.70;12.75;;;;;;;-0.48;69.31;98206.94;4970593;28;20041;-68
2023/03/12 07:49:26;;;;;;;25.02;12.10;;;;;;;-0.41;69.23;98204.16;4970883;28;20035;-68
2023/03/12 07:51:52;;;;;;;26.90;12.68;;;;;;;-0.32;69.37;98208.13;4970372;28;20031;-68
2023/03/12 07:54:17;;;;;;;40.90;16.42;;;;;;;-0.23;69.34;98209.44;4971147;28;20114;-68
2023/03/12 07:56:43;;;;;;;22.00;12.13;;;;;;;-0.16;69.15;98201.25;4985917;28;20478;-69
2023/03/12 07:59:08;;;;;;;17.60;9.32;;;;;;;-0.08;68.94;98203.59;4971902;28;20023;-68
2023/03/12 08:01:33;;;;;;;16.50;8.73;;;;;;;0.01;68.50;98214.03;4971415;28;20438;-69
2023/03/12 08:04:00;;;;;;;26.55;11.85;;;;;;;0.06;68.83;98208.78;4971366;28;20057;-69
2023/03/12 08:06:26;;;;;;;17.90;10.73;;;;;;;0.13;68.63;98204.09;4970598;28;20391;-69
2023/03/12 08:08:51;;;;;;;15.68;8.13;;;;;;;0.18;68.54;98196.13;4971012;28;20026;-69
2023/03/12 08:11:17;;;;;;;16.20;9.60;;;;;;;0.25;68.11;98207.59;4969935;28;20027;-68
2023/03/12 08:13:42;;;;;;;17.08;9.45;;;;;;;0.31;68.25;98208.53;4970873;28;20042;-68
2023/03/12 08:16:08;;;;;;;20.15;10.13;;;;;;;0.40;68.20;98190.94;4970847;28;20031;-69
2023/03/12 08:18:33;;;;;;;18.25;9.23;;;;;;;0.47;67.45;98204.31;4984735;28;20446;-68
2023/03/12 08:20:59;;;;;;;20.15;9.02;;;;;;;0.57;66.67;98207.22;4973239;28;20034;-68
2023/03/12 08:23:25;;;;;;;14.02;6.97;;;;;;;0.61;67.32;98212.16;4979215;28;20026;-68
2023/03/12 08:25:52;;;;;;;12.63;6.50;;;;;;;0.67;66.08;98211.19;4986825;28;20487;-69
2023/03/12 08:28:19;;;;;;;16.10;7.10;;;;;;;0.70;66.03;98202.59;4990806;28;20026;-68
2023/03/12 08:30:52;;;;;;;14.25;6.88;;;;;;;0.76;66.09;98200.84;4990262;28;20034;-69
2023/03/12 08:33:18;;;;;;;13.85;7.68;;;;;;;0.83;66.20;98207.75;4990611;28;20030;-69
2023/03/12 08:35:45;;;;;;;12.32;6.15;;;;;;;0.91;66.17;98213.84;4989900;28;20031;-68
2023/03/12 08:38:10;;;;;;;11.80;5.75;;;;;;;0.98;65.78;98201.81;4990019;28;20030;-68
2023/03/12 08:40:36;;;;;;;13.50;6.25;;;;;;;1.06;66.30;98211.44;4990700;28;20402;-68
2023/03/12 08:43:01;;;;;;;11.27;5.18;;;;;;;1.16;64.67;98211.63;4990353;28;20034;-68
2023/03/12 08:45:27;;;;;;;9.27;4.38;;;;;;;1.23;65.44;98205.25;4990136;28;20076;-68
2023/03/12 08:47:52;;;;;;;11.55;5.15;;;;;;;1.32;64.53;98204.63;4988978;28;20034;-68
2023/03/12 08:50:20;;;;;;;10.07;5.05;;;;;;;1.39;63.94;98206.38;4990810;28;20029;-68
2023/03/12 08:52:46;;;;;;;11.50;5.75;;;;;;;1.44;63.78;98209.16;4990470;28;20042;-68
2023/03/12 08:55:11;;;;;;;10.38;4.80;;;;;;;1.47;64.55;98216.78;4990478;28;20479;-70
2023/03/12 08:57:37;;;;;;;7.88;3.90;;;;;;;1.54;63.66;98216.63;4989913;28;20046;-69
2023/03/12 09:00:14;;;;;;;9.98;4.38;;;;;;;1.59;64.10;98222.13;4990343;28;20429;-68
2023/03/12 09:02:45;;;;;;;9.57;4.05;;;;;;;1.67;63.13;98220.91;4990183;28;20022;-68
2023/03/12 09:05:10;;;;;;;9.45;4.63;;;;;;;1.71;62.59;98222.88;4990646;28;20458;-68
2023/03/12 09:07:37;;;;;;;8.27;4.78;;;;;;;1.76;63.41;98206.75;4989391;28;20113;-69
2023/03/12 09:10:03;;;;;;;13.35;6.00;;;;;;;1.82;63.63;98220.38;4989880;28;20482;-67
2023/03/12 09:12:29;;;;;;;15.32;7.60;;;;;;;1.87;62.68;98220.44;4989918;28;20201;-67
2023/03/12 09:14:54;;;;;;;12.40;5.05;;;;;;;1.91;63.04;98211.59;4989459;28;20116;-68
2023/03/12 09:17:20;;;;;;;7.68;4.25;;;;;;;1.98;63.11;98211.41;4992749;28;20123;-68
2023/03/12 09:19:45;;;;;;;6.30;3.50;;;;;;;2.05;62.36;98211.25;4988753;28;20026;-68
2023/03/12 09:22:11;;;;;;;7.95;3.63;;;;;;;2.12;62.27;98221.91;4980806;28;20029;-68
2023/03/12 09:24:36;;;;;;;5.05;2.72;;;;;;;2.16;62.24;98218.47;4992817;28;20052;-67
2023/03/12 09:27:03;;;;;;;6.93;3.00;;;;;;;2.24;62.24;98214.53;4977540;28;20105;-68
2023/03/12 09:29:29;;;;;;;8.93;3.63;;;;;;;2.31;60.95;98212.47;4974908;28;20058;-68
2023/03/12 09:31:55;;;;;;;9.80;2.97;;;;;;;2.37;60.56;98214.19;4974781;28;20043;-68
2023/03/12 09:34:20;;;;;;;5.65;2.80;;;;;;;2.42;60.43;98226.16;4974520;28;20031;-68
2023/03/12 09:36:45;;;;;;;6.13;3.05;;;;;;;2.45;59.94;98226.44;4973761;28;20049;-68
2023/03/12 09:39:11;;;;;;;6.88;3.35;;;;;;;2.47;60.57;98221.63;4974374;28;20027;-68
2023/03/12 09:41:39;;;;;;;7.28;3.40;;;;;;;2.58;59.64;98209.06;4974324;28;20039;-68
2023/03/12 09:44:16;;;;;;;6.10;3.17;;;;;;;2.73;60.92;98213.03;4987589;28;20049;-68
2023/03/12 09:46:50;;;;;;;4.97;3.10;;;;;;;2.79;59.94;98218.28;4992138;28;20029;-68
2023/03/12 09:49:29;;;;;;;9.75;4.80;;;;;;;2.83;59.77;98219.41;4993040;28;20022;-67
2023/03/12 09:51:57;;;;;;;7.05;3.40;;;;;;;2.91;60.16;98218.16;4994060;28;20058;-68
2023/03/12 09:54:22;;;;;;;7.43;3.58;;;;;;;3.02;60.76;98216.38;4986017;28;20793;-69
2023/03/12 09:56:51;;;;;;;9.82;4.05;;;;;;;3.14;60.87;98216.22;4973814;28;20058;-68
2023/03/12 09:59:17;;;;;;;10.80;4.78;;;;;;;3.23;59.85;98214.72;4976952;28;20030;-68
2023/03/12 10:01:42;;;;;;;7.05;3.08;;;;;;;3.35;59.78;98216.47;4993778;28;20022;-68
2023/03/12 10:04:39;;;;;;;7.95;3.75;;;;;;;3.45;60.05;98216.59;4984345;28;20077;-69
2023/03/12 10:07:10;;;;;;;8.75;3.92;;;;;;;3.62;60.63;98218.34;4973065;28;20033;-68
2023/03/12 10:09:51;;;;;;;7.38;4.03;;;;;;;3.73;58.90;98223.63;4974090;28;20027;-68
2023/03/12 10:12:22;;;;;;;7.63;3.15;;;;;;;3.76;59.80;98222.28;4973923;28;20158;-68
2023/03/12 10:14:56;;;;;;;8.25;2.65;;;;;;;3.82;59.04;98221.28;4973784;28;20031;-68
2023/03/12 10:17:39;;;;;;;4.88;2.10;;;;;;;3.86;58.62;98221.56;4972564;28;20027;-69
2023/03/12 10:20:31;;;;;;;4.30;1.85;;;;;;;3.86;57.92;98222.41;4988494;28;20743;-68
2023/03/12 10:23:05;;;;;;;3.15;1.50;;;;;;;3.82;57.71;98226.69;4958087;28;20042;-69
2023/03/12 10:25:35;;;;;;;6.60;2.30;;;;;;;3.79;57.24;98216.34;4972790;28;20070;-69
2023/03/12 10:28:13;;;;;;;4.40;1.98;;;;;;;3.73;57.81;98212.75;4985428;28;20105;-69
2023/03/12 10:30:41;;;;;;;5.57;2.92;;;;;;;3.75;57.76;98215.22;4973614;28;20452;-68
2023/03/12 10:33:12;;;;;;;11.27;5.60;;;;;;;3.77;57.97;98218.50;4973300;28;20116;-69
2023/03/12 10:35:39;;;;;;;17.42;6.07;;;;;;;3.80;56.38;98215.28;4972975;28;20542;-68
2023/03/12 10:38:11;;;;;;;13.50;4.03;;;;;;;3.86;56.81;98213.41;4972341;28;20113;-68
2023/03/12 10:40:39;;;;;;;6.57;2.72;;;;;;;3.95;56.95;98211.88;4972539;28;20035;-68
2023/03/12 10:43:08;;;;;;;4.60;1.70;;;;;;;4.05;57.01;98210.34;4973019;28;20030;-68
2023/03/12 10:45:49;;;;;;;6.03;3.07;;;;;;;4.15;57.25;98205.78;4971444;28;20015;-68
2023/03/12 10:48:24;;;;;;;7.90;5.32;;;;;;;4.19;55.80;98200.66;4981002;28;20026;-68
2023/03/12 10:51:05;;;;;;;7.60;2.92;;;;;;;4.19;55.88;98210.69;4970965;28;20094;-68
2023/03/12 10:53:34;;;;;;;4.57;2.22;;;;;;;4.29;54.11;98214.28;4969735;28;20494;-68
2023/03/12 10:56:08;;;;;;;3.03;1.70;;;;;;;4.33;54.16;98203.72;4972916;28;20043;-68
2023/03/12 10:58:48;;;;;;;7.32;2.40;;;;;;;4.36;55.07;98205.09;4972543;28;20031;-68
2023/03/12 11:01:14;;;;;;;5.00;2.35;;;;;;;4.40;53.86;98206.22;4972770;28;20387;-68
2023/03/12 11:03:39;;;;;;;6.07;1.95;;;;;;;4.39;53.53;98207.31;4972703;28;20649;-68
2023/03/12 11:06:09;;;;;;;5.47;2.17;;;;;;;4.37;54.30;98204.84;4970747;28;20514;-68
2023/03/12 11:08:36;;;;;;;4.60;2.65;;;;;;;4.38;54.95;98202.94;4972820;28;20480;-68
2023/03/12 11:11:04;;;;;;;24.88;9.65;;;;;;;4.40;55.10;98203.50;4972491;28;20039;-68
2023/03/12 11:13:35;;;;;;;5.40;2.60;;;;;;;4.47;54.90;98204.91;4972926;28;20041;-68
2023/03/12 11:16:23;;;;;;;6.03;2.58;;;;;;;4.53;54.98;98207.66;4971864;28;20031;-68
2023/03/12 11:19:02;;;;;;;3.58;1.85;;;;;;;4.61;53.81;98209.88;4972788;28;20046;-68
2023/03/12 11:21:29;;;;;;;9.90;7.78;;;;;;;4.64;54.23;98208.53;4972658;28;20022;-69
2023/03/12 11:23:57;;;;;;;6.43;4.20;;;;;;;4.67;55.00;98214.25;4972384;28;20388;-70
2023/03/12 11:26:28;;;;;;;4.20;2.53;;;;;;;4.71;53.80;98212.63;4971457;28;20108;-69
2023/03/12 11:29:16;;;;;;;4.30;2.05;;;;;;;4.67;54.06;98211.56;4972538;28;20043;-70